sensor_id;sensor_type;location;lat;lon;timestamp;P1;durP1;ratioP1;P2;durP2;ratioP2
76745;SDS011;65671;49.976;20.038;2024-03-08T00:01:35;22.65;;;12.50;;
76745;SDS011;65671;49.976;20.038;2024-03-08T00:06:26;25.03;;;11.13;;
76745;SDS011;65671;49.976;20.038;2024-03-08T00:08:51;23.75;;;12.52;;
76745;SDS011;65671;49.976;20.038;2024-03-08T00:13:42;25.73;;;12.47;;
76745;SDS011;65671;49.976;20.038;2024-03-08T00:16:07;25.45;;;12.93;;
76745;SDS011;65671;49.976;20.038;2024-03-08T00:18:34;24.92;;;12.00;;
76745;SDS011;65671;49.976;20.038;2024-03-08T00:21:00;25.88;;;13.63;;
76745;SDS011;65671;49.976;20.038;2024-03-08T00:25:50;24.27;;;13.33;;
76745;SDS011;65671;49.976;20.038;2024-03-08T00:30:43;22.45;;;13.13;;
76745;SDS011;65671;49.976;20.038;2024-03-08T00:35:36;23.65;;;12.10;;
76745;SDS011;65671;49.976;20.038;2024-03-08T00:38:01;24.83;;;12.05;;
76745;SDS011;65671;49.976;20.038;2024-03-08T00:42:54;23.50;;;12.50;;
76745;SDS011;65671;49.976;20.038;2024-03-08T00:47:48;20.38;;;12.00;;
76745;SDS011;65671;49.976;20.038;2024-03-08T00:52:39;21.65;;;11.80;;
76745;SDS011;65671;49.976;20.038;2024-03-08T00:57:30;22.58;;;11.45;;
76745;SDS011;65671;49.976;20.038;2024-03-08T01:02:21;24.90;;;12.77;;
76745;SDS011;65671;49.976;20.038;2024-03-08T01:04:48;23.23;;;12.63;;
76745;SDS011;65671;49.976;20.038;2024-03-08T01:09:39;24.20;;;11.40;;
76745;SDS011;65671;49.976;20.038;2024-03-08T01:12:04;25.00;;;12.50;;
76745;SDS011;65671;49.976;20.038;2024-03-08T01:14:32;23.58;;;13.23;;
76745;SDS011;65671;49.976;20.038;2024-03-08T01:19:24;21.38;;;12.48;;
76745;SDS011;65671;49.976;20.038;2024-03-08T01:24:15;26.20;;;12.67;;
76745;SDS011;65671;49.976;20.038;2024-03-08T01:29:05;25.35;;;12.60;;
76745;SDS011;65671;49.976;20.038;2024-03-08T01:33:57;30.33;;;11.75;;
76745;SDS011;65671;49.976;20.038;2024-03-08T01:36:22;21.95;;;11.80;;
76745;SDS011;65671;49.976;20.038;2024-03-08T01:38:49;27.77;;;14.75;;
76745;SDS011;65671;49.976;20.038;2024-03-08T01:43:44;21.60;;;11.75;;
76745;SDS011;65671;49.976;20.038;2024-03-08T01:46:14;26.05;;;13.98;;
76745;SDS011;65671;49.976;20.038;2024-03-08T01:48:44;26.27;;;13.13;;
76745;SDS011;65671;49.976;20.038;2024-03-08T01:53:37;25.00;;;13.57;;
76745;SDS011;65671;49.976;20.038;2024-03-08T01:58:30;25.67;;;13.18;;
76745;SDS011;65671;49.976;20.038;2024-03-08T02:00:58;29.88;;;12.98;;
76745;SDS011;65671;49.976;20.038;2024-03-08T02:03:24;29.85;;;14.50;;
76745;SDS011;65671;49.976;20.038;2024-03-08T02:08:22;22.05;;;11.82;;
76745;SDS011;65671;49.976;20.038;2024-03-08T02:10:48;26.73;;;13.75;;
76745;SDS011;65671;49.976;20.038;2024-03-08T02:13:14;26.98;;;14.27;;
76745;SDS011;65671;49.976;20.038;2024-03-08T02:18:28;27.27;;;12.88;;
76745;SDS011;65671;49.976;20.038;2024-03-08T02:20:58;26.60;;;13.27;;
76745;SDS011;65671;49.976;20.038;2024-03-08T02:23:24;23.05;;;13.63;;
76745;SDS011;65671;49.976;20.038;2024-03-08T02:25:51;23.48;;;13.35;;
76745;SDS011;65671;49.976;20.038;2024-03-08T02:28:18;26.23;;;14.10;;
76745;SDS011;65671;49.976;20.038;2024-03-08T02:33:12;29.48;;;13.52;;
76745;SDS011;65671;49.976;20.038;2024-03-08T02:35:41;26.20;;;12.60;;
76745;SDS011;65671;49.976;20.038;2024-03-08T02:40:33;21.55;;;12.50;;
76745;SDS011;65671;49.976;20.038;2024-03-08T02:42:58;28.77;;;14.50;;
76745;SDS011;65671;49.976;20.038;2024-03-08T02:45:24;26.88;;;13.38;;
76745;SDS011;65671;49.976;20.038;2024-03-08T02:50:15;24.65;;;13.13;;
76745;SDS011;65671;49.976;20.038;2024-03-08T02:55:11;27.63;;;12.82;;
76745;SDS011;65671;49.976;20.038;2024-03-08T02:57:40;24.60;;;13.65;;
76745;SDS011;65671;49.976;20.038;2024-03-08T03:02:34;29.08;;;14.07;;
76745;SDS011;65671;49.976;20.038;2024-03-08T03:07:31;24.30;;;13.05;;
76745;SDS011;65671;49.976;20.038;2024-03-08T03:09:58;25.75;;;13.70;;
76745;SDS011;65671;49.976;20.038;2024-03-08T03:12:25;22.60;;;13.23;;
76745;SDS011;65671;49.976;20.038;2024-03-08T03:17:20;23.17;;;12.23;;
76745;SDS011;65671;49.976;20.038;2024-03-08T03:19:45;27.85;;;14.70;;
76745;SDS011;65671;49.976;20.038;2024-03-08T03:22:11;31.52;;;15.45;;
76745;SDS011;65671;49.976;20.038;2024-03-08T03:27:06;29.45;;;14.77;;
76745;SDS011;65671;49.976;20.038;2024-03-08T03:32:01;26.10;;;13.95;;
76745;SDS011;65671;49.976;20.038;2024-03-08T03:34:28;28.50;;;14.68;;
76745;SDS011;65671;49.976;20.038;2024-03-08T03:39:23;25.42;;;13.35;;
76745;SDS011;65671;49.976;20.038;2024-03-08T03:41:49;27.58;;;13.63;;
76745;SDS011;65671;49.976;20.038;2024-03-08T03:44:17;23.35;;;12.15;;
76745;SDS011;65671;49.976;20.038;2024-03-08T03:46:43;27.30;;;13.32;;
76745;SDS011;65671;49.976;20.038;2024-03-08T03:49:11;24.30;;;12.43;;
76745;SDS011;65671;49.976;20.038;2024-03-08T03:54:06;22.67;;;12.65;;
76745;SDS011;65671;49.976;20.038;2024-03-08T03:58:56;24.57;;;11.33;;
76745;SDS011;65671;49.976;20.038;2024-03-08T04:03:47;23.37;;;11.63;;
76745;SDS011;65671;49.976;20.038;2024-03-08T04:08:39;20.75;;;11.00;;
76745;SDS011;65671;49.976;20.038;2024-03-08T04:13:30;22.90;;;13.33;;
76745;SDS011;65671;49.976;20.038;2024-03-08T04:18:20;24.20;;;12.33;;
76745;SDS011;65671;49.976;20.038;2024-03-08T04:23:11;29.13;;;14.40;;
76745;SDS011;65671;49.976;20.038;2024-03-08T04:25:37;26.27;;;14.52;;
76745;SDS011;65671;49.976;20.038;2024-03-08T04:30:28;26.10;;;13.48;;
76745;SDS011;65671;49.976;20.038;2024-03-08T04:35:19;23.95;;;12.90;;
76745;SDS011;65671;49.976;20.038;2024-03-08T04:37:48;24.52;;;13.48;;
76745;SDS011;65671;49.976;20.038;2024-03-08T04:40:13;28.52;;;14.75;;
76745;SDS011;65671;49.976;20.038;2024-03-08T04:45:06;29.15;;;14.30;;
76745;SDS011;65671;49.976;20.038;2024-03-08T04:47:33;28.13;;;13.93;;
76745;SDS011;65671;49.976;20.038;2024-03-08T04:52:24;24.42;;;12.35;;
76745;SDS011;65671;49.976;20.038;2024-03-08T04:54:50;25.35;;;13.57;;
76745;SDS011;65671;49.976;20.038;2024-03-08T04:59:43;26.30;;;14.20;;
76745;SDS011;65671;49.976;20.038;2024-03-08T05:04:34;27.23;;;13.13;;
76745;SDS011;65671;49.976;20.038;2024-03-08T05:07:00;22.95;;;12.40;;
76745;SDS011;65671;49.976;20.038;2024-03-08T05:11:51;22.35;;;12.05;;
76745;SDS011;65671;49.976;20.038;2024-03-08T05:14:19;24.50;;;12.63;;
76745;SDS011;65671;49.976;20.038;2024-03-08T05:16:45;22.15;;;12.40;;
76745;SDS011;65671;49.976;20.038;2024-03-08T05:19:18;25.80;;;13.32;;
76745;SDS011;65671;49.976;20.038;2024-03-08T05:21:44;27.60;;;15.02;;
76745;SDS011;65671;49.976;20.038;2024-03-08T05:24:13;31.00;;;16.42;;
76745;SDS011;65671;49.976;20.038;2024-03-08T05:26:40;29.10;;;16.52;;
76745;SDS011;65671;49.976;20.038;2024-03-08T05:29:06;35.88;;;17.73;;
76745;SDS011;65671;49.976;20.038;2024-03-08T05:34:29;26.45;;;15.15;;
76745;SDS011;65671;49.976;20.038;2024-03-08T05:39:23;25.60;;;13.25;;
76745;SDS011;65671;49.976;20.038;2024-03-08T05:44:15;23.77;;;13.23;;
76745;SDS011;65671;49.976;20.038;2024-03-08T05:46:44;28.85;;;14.15;;
76745;SDS011;65671;49.976;20.038;2024-03-08T05:49:11;27.83;;;13.63;;
76745;SDS011;65671;49.976;20.038;2024-03-08T05:54:04;23.77;;;12.35;;
76745;SDS011;65671;49.976;20.038;2024-03-08T05:56:30;26.33;;;12.88;;
76745;SDS011;65671;49.976;20.038;2024-03-08T05:58:56;27.33;;;14.73;;
76745;SDS011;65671;49.976;20.038;2024-03-08T06:01:23;30.52;;;16.08;;
76745;SDS011;65671;49.976;20.038;2024-03-08T06:03:52;27.63;;;13.98;;
76745;SDS011;65671;49.976;20.038;2024-03-08T06:06:20;28.85;;;14.32;;
76745;SDS011;65671;49.976;20.038;2024-03-08T06:11:14;23.75;;;12.55;;
76745;SDS011;65671;49.976;20.038;2024-03-08T06:13:40;30.17;;;14.95;;
76745;SDS011;65671;49.976;20.038;2024-03-08T06:18:33;23.35;;;13.27;;
76745;SDS011;65671;49.976;20.038;2024-03-08T06:21:07;28.95;;;13.45;;
76745;SDS011;65671;49.976;20.038;2024-03-08T06:23:42;23.23;;;13.80;;
76745;SDS011;65671;49.976;20.038;2024-03-08T06:28:33;25.65;;;12.38;;
76745;SDS011;65671;49.976;20.038;2024-03-08T06:30:59;29.77;;;14.90;;
76745;SDS011;65671;49.976;20.038;2024-03-08T06:35:53;25.02;;;13.60;;
76745;SDS011;65671;49.976;20.038;2024-03-08T06:38:22;18.40;;;11.38;;
76745;SDS011;65671;49.976;20.038;2024-03-08T06:40:48;24.65;;;11.32;;
76745;SDS011;65671;49.976;20.038;2024-03-08T06:45:42;23.92;;;11.30;;
76745;SDS011;65671;49.976;20.038;2024-03-08T06:48:13;23.25;;;12.77;;
76745;SDS011;65671;49.976;20.038;2024-03-08T06:50:39;25.40;;;13.65;;
76745;SDS011;65671;49.976;20.038;2024-03-08T06:55:31;27.55;;;13.43;;
76745;SDS011;65671;49.976;20.038;2024-03-08T06:57:58;24.35;;;12.27;;
76745;SDS011;65671;49.976;20.038;2024-03-08T07:02:52;23.58;;;13.10;;
76745;SDS011;65671;49.976;20.038;2024-03-08T07:05:18;24.98;;;13.07;;
76745;SDS011;65671;49.976;20.038;2024-03-08T07:10:09;26.57;;;12.90;;
76745;SDS011;65671;49.976;20.038;2024-03-08T07:12:40;22.40;;;12.73;;
76745;SDS011;65671;49.976;20.038;2024-03-08T07:15:09;26.83;;;13.10;;
76745;SDS011;65671;49.976;20.038;2024-03-08T07:17:39;30.90;;;13.82;;
76745;SDS011;65671;49.976;20.038;2024-03-08T07:20:05;26.13;;;13.90;;
76745;SDS011;65671;49.976;20.038;2024-03-08T07:22:36;28.60;;;14.20;;
76745;SDS011;65671;49.976;20.038;2024-03-08T07:25:04;26.70;;;13.10;;
76745;SDS011;65671;49.976;20.038;2024-03-08T07:27:46;31.20;;;14.15;;
76745;SDS011;65671;49.976;20.038;2024-03-08T07:30:12;31.60;;;14.35;;
76745;SDS011;65671;49.976;20.038;2024-03-08T07:32:58;27.70;;;13.50;;
76745;SDS011;65671;49.976;20.038;2024-03-08T07:37:51;25.85;;;14.13;;
76745;SDS011;65671;49.976;20.038;2024-03-08T07:42:43;29.23;;;13.90;;
76745;SDS011;65671;49.976;20.038;2024-03-08T07:47:34;24.88;;;12.50;;
76745;SDS011;65671;49.976;20.038;2024-03-08T07:50:01;26.00;;;13.38;;
76745;SDS011;65671;49.976;20.038;2024-03-08T07:52:27;26.25;;;13.60;;
76745;SDS011;65671;49.976;20.038;2024-03-08T07:57:18;28.95;;;12.85;;
76745;SDS011;65671;49.976;20.038;2024-03-08T07:59:44;26.75;;;13.10;;
76745;SDS011;65671;49.976;20.038;2024-03-08T08:04:35;30.67;;;14.55;;
76745;SDS011;65671;49.976;20.038;2024-03-08T08:09:26;25.15;;;13.38;;
76745;SDS011;65671;49.976;20.038;2024-03-08T08:11:59;30.77;;;14.18;;
76745;SDS011;65671;49.976;20.038;2024-03-08T08:14:27;35.70;;;15.57;;
76745;SDS011;65671;49.976;20.038;2024-03-08T08:16:54;25.27;;;12.75;;
76745;SDS011;65671;49.976;20.038;2024-03-08T08:19:20;32.38;;;17.17;;
76745;SDS011;65671;49.976;20.038;2024-03-08T08:21:46;30.55;;;15.32;;
76745;SDS011;65671;49.976;20.038;2024-03-08T08:26:37;41.30;;;15.47;;
76745;SDS011;65671;49.976;20.038;2024-03-08T08:31:28;28.47;;;13.77;;
76745;SDS011;65671;49.976;20.038;2024-03-08T08:33:53;26.52;;;13.93;;
76745;SDS011;65671;49.976;20.038;2024-03-08T08:36:23;30.90;;;13.80;;
76745;SDS011;65671;49.976;20.038;2024-03-08T08:38:49;26.70;;;13.65;;
76745;SDS011;65671;49.976;20.038;2024-03-08T08:41:15;29.17;;;15.75;;
76745;SDS011;65671;49.976;20.038;2024-03-08T08:43:42;27.83;;;15.57;;
76745;SDS011;65671;49.976;20.038;2024-03-08T08:46:09;26.88;;;14.52;;
76745;SDS011;65671;49.976;20.038;2024-03-08T08:48:41;26.80;;;14.18;;
76745;SDS011;65671;49.976;20.038;2024-03-08T08:51:07;29.80;;;14.50;;
76745;SDS011;65671;49.976;20.038;2024-03-08T08:53:37;27.35;;;13.75;;
76745;SDS011;65671;49.976;20.038;2024-03-08T08:56:11;30.70;;;16.05;;
76745;SDS011;65671;49.976;20.038;2024-03-08T08:58:40;26.35;;;14.48;;
76745;SDS011;65671;49.976;20.038;2024-03-08T09:01:07;25.85;;;13.27;;
76745;SDS011;65671;49.976;20.038;2024-03-08T09:03:36;33.40;;;15.52;;
76745;SDS011;65671;49.976;20.038;2024-03-08T09:08:34;26.52;;;13.57;;
76745;SDS011;65671;49.976;20.038;2024-03-08T09:11:03;28.98;;;13.77;;
76745;SDS011;65671;49.976;20.038;2024-03-08T09:15:54;32.13;;;15.05;;
76745;SDS011;65671;49.976;20.038;2024-03-08T09:20:45;23.63;;;12.37;;
76745;SDS011;65671;49.976;20.038;2024-03-08T09:23:10;26.02;;;13.48;;
76745;SDS011;65671;49.976;20.038;2024-03-08T09:28:02;24.90;;;13.55;;
76745;SDS011;65671;49.976;20.038;2024-03-08T09:32:53;25.92;;;11.60;;
76745;SDS011;65671;49.976;20.038;2024-03-08T09:37:44;24.17;;;12.70;;
76745;SDS011;65671;49.976;20.038;2024-03-08T09:40:12;24.60;;;13.45;;
76745;SDS011;65671;49.976;20.038;2024-03-08T09:42:40;26.52;;;12.40;;
76745;SDS011;65671;49.976;20.038;2024-03-08T09:45:11;26.95;;;14.07;;
76745;SDS011;65671;49.976;20.038;2024-03-08T09:47:44;28.05;;;15.00;;
76745;SDS011;65671;49.976;20.038;2024-03-08T09:50:10;26.00;;;14.23;;
76745;SDS011;65671;49.976;20.038;2024-03-08T09:52:40;33.40;;;14.85;;
76745;SDS011;65671;49.976;20.038;2024-03-08T09:55:09;28.45;;;14.95;;
76745;SDS011;65671;49.976;20.038;2024-03-08T09:57:36;27.92;;;14.70;;
76745;SDS011;65671;49.976;20.038;2024-03-08T10:02:33;24.95;;;13.10;;
76745;SDS011;65671;49.976;20.038;2024-03-08T10:05:01;30.60;;;16.25;;
76745;SDS011;65671;49.976;20.038;2024-03-08T10:07:28;30.08;;;14.70;;
76745;SDS011;65671;49.976;20.038;2024-03-08T10:12:19;21.95;;;12.40;;
76745;SDS011;65671;49.976;20.038;2024-03-08T10:14:45;25.67;;;12.65;;
76745;SDS011;65671;49.976;20.038;2024-03-08T10:17:11;29.00;;;14.90;;
76745;SDS011;65671;49.976;20.038;2024-03-08T10:22:04;25.75;;;13.20;;
76745;SDS011;65671;49.976;20.038;2024-03-08T10:24:30;27.33;;;13.23;;
76745;SDS011;65671;49.976;20.038;2024-03-08T10:27:01;21.25;;;12.80;;
76745;SDS011;65671;49.976;20.038;2024-03-08T10:29:30;24.67;;;13.63;;
76745;SDS011;65671;49.976;20.038;2024-03-08T10:31:56;26.80;;;14.32;;
76745;SDS011;65671;49.976;20.038;2024-03-08T10:36:49;25.98;;;13.38;;
76745;SDS011;65671;49.976;20.038;2024-03-08T10:39:23;25.75;;;12.43;;
76745;SDS011;65671;49.976;20.038;2024-03-08T10:41:52;26.05;;;13.80;;
76745;SDS011;65671;49.976;20.038;2024-03-08T10:44:32;29.55;;;14.13;;
76745;SDS011;65671;49.976;20.038;2024-03-08T10:47:06;23.70;;;12.90;;
76745;SDS011;65671;49.976;20.038;2024-03-08T10:49:38;23.88;;;12.52;;
76745;SDS011;65671;49.976;20.038;2024-03-08T10:52:07;26.27;;;13.98;;
76745;SDS011;65671;49.976;20.038;2024-03-08T10:54:36;22.65;;;11.57;;
76745;SDS011;65671;49.976;20.038;2024-03-08T10:57:05;24.05;;;12.10;;
76745;SDS011;65671;49.976;20.038;2024-03-08T10:59:34;22.33;;;12.25;;
76745;SDS011;65671;49.976;20.038;2024-03-08T11:02:00;25.25;;;13.73;;
76745;SDS011;65671;49.976;20.038;2024-03-08T11:04:26;26.63;;;13.52;;
76745;SDS011;65671;49.976;20.038;2024-03-08T11:06:54;25.40;;;13.18;;
76745;SDS011;65671;49.976;20.038;2024-03-08T11:09:32;24.33;;;13.52;;
76745;SDS011;65671;49.976;20.038;2024-03-08T11:15:01;24.50;;;12.43;;
76745;SDS011;65671;49.976;20.038;2024-03-08T11:20:14;21.92;;;13.07;;
76745;SDS011;65671;49.976;20.038;2024-03-08T11:22:49;20.58;;;11.45;;
76745;SDS011;65671;49.976;20.038;2024-03-08T11:25:35;23.30;;;13.52;;
76745;SDS011;65671;49.976;20.038;2024-03-08T11:28:14;22.35;;;12.60;;
76745;SDS011;65671;49.976;20.038;2024-03-08T11:30:46;24.00;;;14.32;;
76745;SDS011;65671;49.976;20.038;2024-03-08T11:33:34;22.70;;;12.50;;
76745;SDS011;65671;49.976;20.038;2024-03-08T11:38:45;23.65;;;12.82;;
76745;SDS011;65671;49.976;20.038;2024-03-08T11:41:23;23.05;;;12.13;;
76745;SDS011;65671;49.976;20.038;2024-03-08T11:43:50;28.13;;;14.90;;
76745;SDS011;65671;49.976;20.038;2024-03-08T11:46:30;23.45;;;12.15;;
76745;SDS011;65671;49.976;20.038;2024-03-08T11:48:56;22.80;;;11.80;;
76745;SDS011;65671;49.976;20.038;2024-03-08T11:51:22;25.48;;;12.57;;
76745;SDS011;65671;49.976;20.038;2024-03-08T11:53:49;22.73;;;13.52;;
76745;SDS011;65671;49.976;20.038;2024-03-08T11:56:15;22.27;;;11.77;;
76745;SDS011;65671;49.976;20.038;2024-03-08T11:58:41;23.73;;;12.93;;
76745;SDS011;65671;49.976;20.038;2024-03-08T12:01:08;25.38;;;13.20;;
76745;SDS011;65671;49.976;20.038;2024-03-08T12:03:40;22.13;;;12.63;;
76745;SDS011;65671;49.976;20.038;2024-03-08T12:06:07;21.80;;;11.70;;
76745;SDS011;65671;49.976;20.038;2024-03-08T12:08:35;23.05;;;12.30;;
76745;SDS011;65671;49.976;20.038;2024-03-08T12:11:01;22.20;;;11.70;;
76745;SDS011;65671;49.976;20.038;2024-03-08T12:13:27;25.67;;;13.60;;
76745;SDS011;65671;49.976;20.038;2024-03-08T12:15:57;28.70;;;14.00;;
76745;SDS011;65671;49.976;20.038;2024-03-08T12:18:27;24.95;;;13.68;;
76745;SDS011;65671;49.976;20.038;2024-03-08T12:21:08;23.42;;;13.27;;
76745;SDS011;65671;49.976;20.038;2024-03-08T12:23:35;26.60;;;13.38;;
76745;SDS011;65671;49.976;20.038;2024-03-08T12:26:14;24.50;;;13.25;;
76745;SDS011;65671;49.976;20.038;2024-03-08T12:28:42;26.13;;;13.27;;
76745;SDS011;65671;49.976;20.038;2024-03-08T12:31:13;24.60;;;13.38;;
76745;SDS011;65671;49.976;20.038;2024-03-08T12:33:51;25.40;;;12.65;;
76745;SDS011;65671;49.976;20.038;2024-03-08T12:36:24;22.60;;;12.32;;
76745;SDS011;65671;49.976;20.038;2024-03-08T12:38:50;22.35;;;12.20;;
76745;SDS011;65671;49.976;20.038;2024-03-08T12:41:17;22.65;;;13.38;;
76745;SDS011;65671;49.976;20.038;2024-03-08T12:43:44;24.42;;;13.63;;
76745;SDS011;65671;49.976;20.038;2024-03-08T12:46:19;23.50;;;13.35;;
76745;SDS011;65671;49.976;20.038;2024-03-08T12:48:46;23.25;;;12.95;;
76745;SDS011;65671;49.976;20.038;2024-03-08T12:51:12;22.13;;;11.98;;
76745;SDS011;65671;49.976;20.038;2024-03-08T12:53:43;23.38;;;11.95;;
76745;SDS011;65671;49.976;20.038;2024-03-08T12:56:09;21.73;;;12.63;;
76745;SDS011;65671;49.976;20.038;2024-03-08T12:58:36;26.17;;;13.18;;
76745;SDS011;65671;49.976;20.038;2024-03-08T13:01:04;24.85;;;12.88;;
76745;SDS011;65671;49.976;20.038;2024-03-08T13:03:32;25.52;;;12.68;;
76745;SDS011;65671;49.976;20.038;2024-03-08T13:06:02;24.00;;;12.60;;
76745;SDS011;65671;49.976;20.038;2024-03-08T13:08:34;21.95;;;12.60;;
76745;SDS011;65671;49.976;20.038;2024-03-08T13:11:09;20.90;;;12.90;;
76745;SDS011;65671;49.976;20.038;2024-03-08T13:13:42;21.90;;;12.75;;
76745;SDS011;65671;49.976;20.038;2024-03-08T13:16:10;24.63;;;13.90;;
76745;SDS011;65671;49.976;20.038;2024-03-08T13:18:40;22.45;;;12.63;;
76745;SDS011;65671;49.976;20.038;2024-03-08T13:21:08;20.70;;;12.55;;
76745;SDS011;65671;49.976;20.038;2024-03-08T13:23:40;19.73;;;11.75;;
76745;SDS011;65671;49.976;20.038;2024-03-08T13:26:15;23.02;;;12.38;;
76745;SDS011;65671;49.976;20.038;2024-03-08T13:28:45;23.55;;;12.80;;
76745;SDS011;65671;49.976;20.038;2024-03-08T13:31:11;22.55;;;13.30;;
76745;SDS011;65671;49.976;20.038;2024-03-08T13:33:40;23.15;;;12.77;;
76745;SDS011;65671;49.976;20.038;2024-03-08T13:36:11;19.45;;;11.27;;
76745;SDS011;65671;49.976;20.038;2024-03-08T13:38:45;21.83;;;12.43;;
76745;SDS011;65671;49.976;20.038;2024-03-08T13:41:13;25.13;;;12.88;;
76745;SDS011;65671;49.976;20.038;2024-03-08T13:43:44;21.73;;;12.45;;
76745;SDS011;65671;49.976;20.038;2024-03-08T13:46:13;27.50;;;13.95;;
76745;SDS011;65671;49.976;20.038;2024-03-08T13:48:39;21.13;;;12.48;;
76745;SDS011;65671;49.976;20.038;2024-03-08T13:51:07;29.08;;;13.65;;
76745;SDS011;65671;49.976;20.038;2024-03-08T13:53:37;24.25;;;13.43;;
76745;SDS011;65671;49.976;20.038;2024-03-08T13:56:05;23.08;;;12.30;;
76745;SDS011;65671;49.976;20.038;2024-03-08T13:58:32;24.45;;;12.77;;
76745;SDS011;65671;49.976;20.038;2024-03-08T14:00:58;25.45;;;14.30;;
76745;SDS011;65671;49.976;20.038;2024-03-08T14:03:26;46.38;;;23.75;;
76745;SDS011;65671;49.976;20.038;2024-03-08T14:05:52;23.17;;;12.10;;
76745;SDS011;65671;49.976;20.038;2024-03-08T14:08:20;22.30;;;11.95;;
76745;SDS011;65671;49.976;20.038;2024-03-08T14:10:47;22.75;;;12.68;;
76745;SDS011;65671;49.976;20.038;2024-03-08T14:13:15;22.80;;;13.43;;
76745;SDS011;65671;49.976;20.038;2024-03-08T14:15:44;22.83;;;13.10;;
76745;SDS011;65671;49.976;20.038;2024-03-08T14:18:11;22.30;;;12.38;;
76745;SDS011;65671;49.976;20.038;2024-03-08T14:20:38;24.08;;;12.93;;
76745;SDS011;65671;49.976;20.038;2024-03-08T14:23:05;21.40;;;12.60;;
76745;SDS011;65671;49.976;20.038;2024-03-08T14:25:34;22.42;;;12.55;;
76745;SDS011;65671;49.976;20.038;2024-03-08T14:28:00;22.58;;;12.85;;
76745;SDS011;65671;49.976;20.038;2024-03-08T14:30:29;21.77;;;12.63;;
76745;SDS011;65671;49.976;20.038;2024-03-08T14:33:07;24.92;;;13.90;;
76745;SDS011;65671;49.976;20.038;2024-03-08T14:35:36;26.75;;;12.57;;
76745;SDS011;65671;49.976;20.038;2024-03-08T14:38:02;26.75;;;12.73;;
76745;SDS011;65671;49.976;20.038;2024-03-08T14:40:28;23.20;;;12.93;;
76745;SDS011;65671;49.976;20.038;2024-03-08T14:42:55;23.08;;;12.80;;
76745;SDS011;65671;49.976;20.038;2024-03-08T14:45:21;23.02;;;12.93;;
76745;SDS011;65671;49.976;20.038;2024-03-08T14:47:49;22.52;;;12.68;;
76745;SDS011;65671;49.976;20.038;2024-03-08T14:50:18;25.40;;;13.00;;
76745;SDS011;65671;49.976;20.038;2024-03-08T14:52:46;21.45;;;12.65;;
76745;SDS011;65671;49.976;20.038;2024-03-08T14:55:18;24.45;;;13.10;;
76745;SDS011;65671;49.976;20.038;2024-03-08T14:57:47;23.92;;;13.02;;
76745;SDS011;65671;49.976;20.038;2024-03-08T15:00:16;23.58;;;13.25;;
76745;SDS011;65671;49.976;20.038;2024-03-08T15:02:52;22.42;;;13.02;;
76745;SDS011;65671;49.976;20.038;2024-03-08T15:05:22;24.50;;;13.98;;
76745;SDS011;65671;49.976;20.038;2024-03-08T15:07:52;23.55;;;13.63;;
76745;SDS011;65671;49.976;20.038;2024-03-08T15:10:18;24.00;;;13.40;;
76745;SDS011;65671;49.976;20.038;2024-03-08T15:12:46;24.05;;;12.30;;
76745;SDS011;65671;49.976;20.038;2024-03-08T15:15:12;26.55;;;14.20;;
76745;SDS011;65671;49.976;20.038;2024-03-08T15:17:42;30.63;;;14.93;;
76745;SDS011;65671;49.976;20.038;2024-03-08T15:20:15;24.50;;;13.68;;
76745;SDS011;65671;49.976;20.038;2024-03-08T15:22:59;20.00;;;12.35;;
76745;SDS011;65671;49.976;20.038;2024-03-08T15:25:25;23.33;;;13.52;;
76745;SDS011;65671;49.976;20.038;2024-03-08T15:27:51;27.30;;;13.88;;
76745;SDS011;65671;49.976;20.038;2024-03-08T15:30:20;26.10;;;13.57;;
76745;SDS011;65671;49.976;20.038;2024-03-08T15:32:56;24.13;;;12.93;;
76745;SDS011;65671;49.976;20.038;2024-03-08T15:35:22;26.40;;;13.80;;
76745;SDS011;65671;49.976;20.038;2024-03-08T15:37:48;24.73;;;13.85;;
76745;SDS011;65671;49.976;20.038;2024-03-08T15:40:14;30.23;;;15.32;;
76745;SDS011;65671;49.976;20.038;2024-03-08T15:42:49;26.02;;;13.80;;
76745;SDS011;65671;49.976;20.038;2024-03-08T15:45:20;27.05;;;14.77;;
76745;SDS011;65671;49.976;20.038;2024-03-08T15:47:45;28.63;;;15.30;;
76745;SDS011;65671;49.976;20.038;2024-03-08T15:50:11;27.45;;;14.63;;
76745;SDS011;65671;49.976;20.038;2024-03-08T15:52:39;29.70;;;14.57;;
76745;SDS011;65671;49.976;20.038;2024-03-08T15:55:05;29.40;;;15.25;;
76745;SDS011;65671;49.976;20.038;2024-03-08T15:57:32;26.33;;;14.93;;
76745;SDS011;65671;49.976;20.038;2024-03-08T15:59:58;31.52;;;14.73;;
76745;SDS011;65671;49.976;20.038;2024-03-08T16:02:25;32.40;;;16.45;;
76745;SDS011;65671;49.976;20.038;2024-03-08T16:04:53;30.02;;;16.05;;
76745;SDS011;65671;49.976;20.038;2024-03-08T16:07:19;26.38;;;14.50;;
76745;SDS011;65671;49.976;20.038;2024-03-08T16:09:44;29.38;;;15.52;;
76745;SDS011;65671;49.976;20.038;2024-03-08T16:12:10;28.35;;;15.38;;
76745;SDS011;65671;49.976;20.038;2024-03-08T16:14:37;28.13;;;13.43;;
76745;SDS011;65671;49.976;20.038;2024-03-08T16:17:03;29.70;;;14.73;;
76745;SDS011;65671;49.976;20.038;2024-03-08T16:21:55;30.70;;;14.27;;
76745;SDS011;65671;49.976;20.038;2024-03-08T16:24:22;35.45;;;16.77;;
76745;SDS011;65671;49.976;20.038;2024-03-08T16:26:48;29.73;;;16.00;;
76745;SDS011;65671;49.976;20.038;2024-03-08T16:29:14;30.38;;;15.70;;
76745;SDS011;65671;49.976;20.038;2024-03-08T16:31:40;28.27;;;14.43;;
76745;SDS011;65671;49.976;20.038;2024-03-08T16:34:06;32.63;;;15.90;;
76745;SDS011;65671;49.976;20.038;2024-03-08T16:36:33;35.20;;;14.95;;
76745;SDS011;65671;49.976;20.038;2024-03-08T16:38:59;32.83;;;16.38;;
76745;SDS011;65671;49.976;20.038;2024-03-08T16:43:50;27.30;;;14.05;;
76745;SDS011;65671;49.976;20.038;2024-03-08T16:48:41;30.83;;;14.70;;
76745;SDS011;65671;49.976;20.038;2024-03-08T16:53:34;28.77;;;14.38;;
76745;SDS011;65671;49.976;20.038;2024-03-08T16:56:00;29.20;;;14.88;;
76745;SDS011;65671;49.976;20.038;2024-03-08T17:00:51;37.25;;;17.23;;
76745;SDS011;65671;49.976;20.038;2024-03-08T17:05:41;35.43;;;17.37;;
76745;SDS011;65671;49.976;20.038;2024-03-08T17:08:11;34.70;;;17.48;;
76745;SDS011;65671;49.976;20.038;2024-03-08T17:13:02;31.08;;;16.10;;
76745;SDS011;65671;49.976;20.038;2024-03-08T17:15:30;44.83;;;19.50;;
76745;SDS011;65671;49.976;20.038;2024-03-08T17:17:58;41.08;;;19.88;;
76745;SDS011;65671;49.976;20.038;2024-03-08T17:20:30;42.60;;;20.30;;
76745;SDS011;65671;49.976;20.038;2024-03-08T17:22:56;43.63;;;21.00;;
76745;SDS011;65671;49.976;20.038;2024-03-08T17:27:52;40.17;;;19.08;;
76745;SDS011;65671;49.976;20.038;2024-03-08T17:30:20;35.50;;;17.42;;
76745;SDS011;65671;49.976;20.038;2024-03-08T17:32:54;38.65;;;18.30;;
76745;SDS011;65671;49.976;20.038;2024-03-08T17:35:25;37.10;;;18.05;;
76745;SDS011;65671;49.976;20.038;2024-03-08T17:37:54;40.03;;;17.67;;
76745;SDS011;65671;49.976;20.038;2024-03-08T17:40:21;41.05;;;18.15;;
76745;SDS011;65671;49.976;20.038;2024-03-08T17:42:51;40.58;;;17.92;;